sensor_id;sensor_type;location;lat;lon;timestamp;temperature;humidity
1626;DHT22;806;48.770;9.156;2023-06-19T00:00:57;24.50;1.00
1626;DHT22;806;48.770;9.156;2023-06-19T00:03:24;24.50;1.00
1626;DHT22;806;48.770;9.156;2023-06-19T00:05:51;24.60;1.00
1626;DHT22;806;48.770;9.156;2023-06-19T00:08:19;24.60;1.00
1626;DHT22;806;48.770;9.156;2023-06-19T00:10:48;24.60;1.00
1626;DHT22;806;48.770;9.156;2023-06-19T00:13:14;24.60;1.00
1626;DHT22;806;48.770;9.156;2023-06-19T00:15:41;24.50;1.00
1626;DHT22;806;48.770;9.156;2023-06-19T00:18:08;24.50;1.00
1626;DHT22;806;48.770;9.156;2023-06-19T00:20:36;24.50;1.00
1626;DHT22;806;48.770;9.156;2023-06-19T00:23:05;24.50;1.00
1626;DHT22;806;48.770;9.156;2023-06-19T00:25:37;24.40;1.00
1626;DHT22;806;48.770;9.156;2023-06-19T00:28:04;24.40;1.00
1626;DHT22;806;48.770;9.156;2023-06-19T00:30:39;24.40;1.00
1626;DHT22;806;48.770;9.156;2023-06-19T00:33:07;24.30;1.00
1626;DHT22;806;48.770;9.156;2023-06-19T00:35:34;24.30;1.00
1626;DHT22;806;48.770;9.156;2023-06-19T00:38:01;24.20;1.00
1626;DHT22;806;48.770;9.156;2023-06-19T00:40:30;24.20;1.00
1626;DHT22;806;48.770;9.156;2023-06-19T00:42:59;24.20;1.00
1626;DHT22;806;48.770;9.156;2023-06-19T00:45:26;24.10;1.00
1626;DHT22;806;48.770;9.156;2023-06-19T00:47:54;24.10;1.00
1626;DHT22;806;48.770;9.156;2023-06-19T00:50:22;24.10;1.00
1626;DHT22;806;48.770;9.156;2023-06-19T00:52:49;24.00;1.00
1626;DHT22;806;48.770;9.156;2023-06-19T00:55:17;24.10;1.00
1626;DHT22;806;48.770;9.156;2023-06-19T00:57:44;24.10;1.00
1626;DHT22;806;48.770;9.156;2023-06-19T01:00:14;24.10;1.00
1626;DHT22;806;48.770;9.156;2023-06-19T01:02:40;24.10;1.00
1626;DHT22;806;48.770;9.156;2023-06-19T01:05:08;24.10;1.00
1626;DHT22;806;48.770;9.156;2023-06-19T01:07:41;24.10;1.00
1626;DHT22;806;48.770;9.156;2023-06-19T01:10:13;24.20;1.00
1626;DHT22;806;48.770;9.156;2023-06-19T01:12:46;24.20;1.00
1626;DHT22;806;48.770;9.156;2023-06-19T01:15:20;24.20;1.00
1626;DHT22;806;48.770;9.156;2023-06-19T01:17:49;24.20;1.00
1626;DHT22;806;48.770;9.156;2023-06-19T01:20:16;24.30;1.00
1626;DHT22;806;48.770;9.156;2023-06-19T01:22:45;24.40;1.00
1626;DHT22;806;48.770;9.156;2023-06-19T01:25:11;24.50;1.00
1626;DHT22;806;48.770;9.156;2023-06-19T01:27:40;24.60;1.00
1626;DHT22;806;48.770;9.156;2023-06-19T01:30:10;24.60;1.00
1626;DHT22;806;48.770;9.156;2023-06-19T01:32:44;24.60;1.00
1626;DHT22;806;48.770;9.156;2023-06-19T01:35:17;24.60;1.00
1626;DHT22;806;48.770;9.156;2023-06-19T01:37:47;24.60;1.00
1626;DHT22;806;48.770;9.156;2023-06-19T01:40:14;24.40;1.00
1626;DHT22;806;48.770;9.156;2023-06-19T01:42:43;24.30;1.00
1626;DHT22;806;48.770;9.156;2023-06-19T01:45:10;24.20;1.00
1626;DHT22;806;48.770;9.156;2023-06-19T01:47:37;24.20;1.00
1626;DHT22;806;48.770;9.156;2023-06-19T01:50:05;24.20;1.00
1626;DHT22;806;48.770;9.156;2023-06-19T01:52:32;24.20;1.00
1626;DHT22;806;48.770;9.156;2023-06-19T01:55:01;24.10;1.00
1626;DHT22;806;48.770;9.156;2023-06-19T01:57:29;24.20;1.00
1626;DHT22;806;48.770;9.156;2023-06-19T01:59:56;24.10;1.00
1626;DHT22;806;48.770;9.156;2023-06-19T02:02:23;24.10;1.00
1626;DHT22;806;48.770;9.156;2023-06-19T02:04:49;24.10;1.00
1626;DHT22;806;48.770;9.156;2023-06-19T02:07:16;24.00;1.00
1626;DHT22;806;48.770;9.156;2023-06-19T02:09:43;23.90;1.00
1626;DHT22;806;48.770;9.156;2023-06-19T02:12:12;23.90;1.00
1626;DHT22;806;48.770;9.156;2023-06-19T02:14:39;23.90;1.00
1626;DHT22;806;48.770;9.156;2023-06-19T02:17:06;23.90;1.00
1626;DHT22;806;48.770;9.156;2023-06-19T02:19:33;24.00;1.00
1626;DHT22;806;48.770;9.156;2023-06-19T02:22:00;23.90;1.00
1626;DHT22;806;48.770;9.156;2023-06-19T02:24:27;23.90;1.00
1626;DHT22;806;48.770;9.156;2023-06-19T02:26:54;23.80;1.00
1626;DHT22;806;48.770;9.156;2023-06-19T02:29:22;23.60;1.00
1626;DHT22;806;48.770;9.156;2023-06-19T02:31:49;23.60;1.00
1626;DHT22;806;48.770;9.156;2023-06-19T02:34:16;23.40;1.00
1626;DHT22;806;48.770;9.156;2023-06-19T02:36:43;23.30;1.00
1626;DHT22;806;48.770;9.156;2023-06-19T02:39:12;23.20;1.00
1626;DHT22;806;48.770;9.156;2023-06-19T02:41:39;23.20;1.00
1626;DHT22;806;48.770;9.156;2023-06-19T02:44:08;23.20;1.00
1626;DHT22;806;48.770;9.156;2023-06-19T02:46:37;23.20;1.00
1626;DHT22;806;48.770;9.156;2023-06-19T02:49:04;23.20;1.00
1626;DHT22;806;48.770;9.156;2023-06-19T02:51:31;23.20;7.50
1626;DHT22;806;48.770;9.156;2023-06-19T02:53:58;23.20;47.50
1626;DHT22;806;48.770;9.156;2023-06-19T02:56:26;23.30;34.30
1626;DHT22;806;48.770;9.156;2023-06-19T02:58:54;23.30;12.00
1626;DHT22;806;48.770;9.156;2023-06-19T03:01:21;23.30;16.10
1626;DHT22;806;48.770;9.156;2023-06-19T03:03:49;23.20;52.60
1626;DHT22;806;48.770;9.156;2023-06-19T03:06:17;23.30;39.70
1626;DHT22;806;48.770;9.156;2023-06-19T03:08:45;23.20;99.90
1626;DHT22;806;48.770;9.156;2023-06-19T03:11:12;23.10;99.90
1626;DHT22;806;48.770;9.156;2023-06-19T03:13:45;23.10;99.90
1626;DHT22;806;48.770;9.156;2023-06-19T03:16:12;23.10;99.90
1626;DHT22;806;48.770;9.156;2023-06-19T03:18:40;23.00;99.90
1626;DHT22;806;48.770;9.156;2023-06-19T03:21:08;23.10;99.90
1626;DHT22;806;48.770;9.156;2023-06-19T03:23:35;23.00;99.90
1626;DHT22;806;48.770;9.156;2023-06-19T03:26:02;22.90;99.90
1626;DHT22;806;48.770;9.156;2023-06-19T03:28:29;22.80;1.00
1626;DHT22;806;48.770;9.156;2023-06-19T03:30:56;22.80;1.00
1626;DHT22;806;48.770;9.156;2023-06-19T03:33:23;22.70;1.00
1626;DHT22;806;48.770;9.156;2023-06-19T03:35:50;22.60;1.00
1626;DHT22;806;48.770;9.156;2023-06-19T03:38:18;22.60;1.00
1626;DHT22;806;48.770;9.156;2023-06-19T03:40:45;22.60;1.00
1626;DHT22;806;48.770;9.156;2023-06-19T03:43:12;22.60;1.00
1626;DHT22;806;48.770;9.156;2023-06-19T03:45:39;22.60;1.00
1626;DHT22;806;48.770;9.156;2023-06-19T03:48:06;22.60;99.90
1626;DHT22;806;48.770;9.156;2023-06-19T03:50:33;22.40;99.90
1626;DHT22;806;48.770;9.156;2023-06-19T03:53:00;22.40;1.00
1626;DHT22;806;48.770;9.156;2023-06-19T03:55:28;22.20;99.90
1626;DHT22;806;48.770;9.156;2023-06-19T03:57:55;22.20;99.90
1626;DHT22;806;48.770;9.156;2023-06-19T04:00:22;22.30;99.90
1626;DHT22;806;48.770;9.156;2023-06-19T04:02:49;22.30;99.90
1626;DHT22;806;48.770;9.156;2023-06-19T04:05:16;22.30;99.90
1626;DHT22;806;48.770;9.156;2023-06-19T04:07:43;22.20;99.90
1626;DHT22;806;48.770;9.156;2023-06-19T04:10:10;22.30;72.30
1626;DHT22;806;48.770;9.156;2023-06-19T04:12:39;22.40;5.00
1626;DHT22;806;48.770;9.156;2023-06-19T04:15:07;22.30;1.00
1626;DHT22;806;48.770;9.156;2023-06-19T04:17:34;22.30;33.70
1626;DHT22;806;48.770;9.156;2023-06-19T04:20:02;22.30;99.90
1626;DHT22;806;48.770;9.156;2023-06-19T04:22:32;22.20;1.00
1626;DHT22;806;48.770;9.156;2023-06-19T04:24:59;22.00;1.00
1626;DHT22;806;48.770;9.156;2023-06-19T04:27:26;22.00;1.00
1626;DHT22;806;48.770;9.156;2023-06-19T04:29:54;21.90;99.90
1626;DHT22;806;48.770;9.156;2023-06-19T04:32:21;21.80;99.90
1626;DHT22;806;48.770;9.156;2023-06-19T04:34:48;21.80;99.90
1626;DHT22;806;48.770;9.156;2023-06-19T04:37:15;21.70;99.90
1626;DHT22;806;48.770;9.156;2023-06-19T04:39:44;21.80;99.90
1626;DHT22;806;48.770;9.156;2023-06-19T04:42:13;21.80;99.90
1626;DHT22;806;48.770;9.156;2023-06-19T04:44:45;21.90;1.00
1626;DHT22;806;48.770;9.156;2023-06-19T04:47:13;21.80;1.00
1626;DHT22;806;48.770;9.156;2023-06-19T04:49:41;21.90;73.00
1626;DHT22;806;48.770;9.156;2023-06-19T04:52:08;21.90;99.90
1626;DHT22;806;48.770;9.156;2023-06-19T04:54:35;22.00;39.90
1626;DHT22;806;48.770;9.156;2023-06-19T04:57:02;22.10;1.00
1626;DHT22;806;48.770;9.156;2023-06-19T04:59:29;22.20;1.00
1626;DHT22;806;48.770;9.156;2023-06-19T05:01:56;22.30;99.90
1626;DHT22;806;48.770;9.156;2023-06-19T05:04:25;22.30;1.00
1626;DHT22;806;48.770;9.156;2023-06-19T05:06:52;22.20;1.00
1626;DHT22;806;48.770;9.156;2023-06-19T05:09:19;22.30;1.00
1626;DHT22;806;48.770;9.156;2023-06-19T05:11:46;22.40;99.90
1626;DHT22;806;48.770;9.156;2023-06-19T05:14:13;22.50;99.90
1626;DHT22;806;48.770;9.156;2023-06-19T05:16:40;22.40;99.90
1626;DHT22;806;48.770;9.156;2023-06-19T05:19:08;22.40;99.90
1626;DHT22;806;48.770;9.156;2023-06-19T05:21:36;22.50;99.90
1626;DHT22;806;48.770;9.156;2023-06-19T05:24:03;22.50;99.90
1626;DHT22;806;48.770;9.156;2023-06-19T05:26:30;22.60;99.90
1626;DHT22;806;48.770;9.156;2023-06-19T05:28:57;22.60;99.90
1626;DHT22;806;48.770;9.156;2023-06-19T05:31:27;22.60;99.90
1626;DHT22;806;48.770;9.156;2023-06-19T05:33:54;22.60;1.00
1626;DHT22;806;48.770;9.156;2023-06-19T05:36:20;22.70;1.00
1626;DHT22;806;48.770;9.156;2023-06-19T05:38:49;22.70;26.20
1626;DHT22;806;48.770;9.156;2023-06-19T05:41:16;22.70;18.90
1626;DHT22;806;48.770;9.156;2023-06-19T05:43:43;22.70;1.00
1626;DHT22;806;48.770;9.156;2023-06-19T05:46:10;22.60;99.90
1626;DHT22;806;48.770;9.156;2023-06-19T05:48:37;22.60;99.90
1626;DHT22;806;48.770;9.156;2023-06-19T05:51:04;22.60;99.90
1626;DHT22;806;48.770;9.156;2023-06-19T05:53:31;22.80;1.00
1626;DHT22;806;48.770;9.156;2023-06-19T05:55:59;22.80;1.00
1626;DHT22;806;48.770;9.156;2023-06-19T05:58:26;22.80;1.00
1626;DHT22;806;48.770;9.156;2023-06-19T06:00:53;22.80;56.30
1626;DHT22;806;48.770;9.156;2023-06-19T06:03:23;22.90;99.90
1626;DHT22;806;48.770;9.156;2023-06-19T06:05:50;23.00;1.00
1626;DHT22;806;48.770;9.156;2023-06-19T06:08:17;23.00;1.00
1626;DHT22;806;48.770;9.156;2023-06-19T06:10:44;23.20;1.00
1626;DHT22;806;48.770;9.156;2023-06-19T06:13:13;23.40;1.00
1626;DHT22;806;48.770;9.156;2023-06-19T06:15:40;23.50;99.90
1626;DHT22;806;48.770;9.156;2023-06-19T06:18:07;23.60;99.90
1626;DHT22;806;48.770;9.156;2023-06-19T06:20:34;23.70;1.00
1626;DHT22;806;48.770;9.156;2023-06-19T06:23:01;23.80;1.00
1626;DHT22;806;48.770;9.156;2023-06-19T06:25:29;23.80;1.00
1626;DHT22;806;48.770;9.156;2023-06-19T06:27:56;23.80;1.00
1626;DHT22;806;48.770;9.156;2023-06-19T06:30:24;23.90;1.00
1626;DHT22;806;48.770;9.156;2023-06-19T06:32:53;23.80;1.00
1626;DHT22;806;48.770;9.156;2023-06-19T06:35:20;23.80;1.00
1626;DHT22;806;48.770;9.156;2023-06-19T06:37:47;23.90;1.00
1626;DHT22;806;48.770;9.156;2023-06-19T06:40:15;24.10;1.00
1626;DHT22;806;48.770;9.156;2023-06-19T06:42:42;24.20;1.00
1626;DHT22;806;48.770;9.156;2023-06-19T06:45:10;24.30;1.00
1626;DHT22;806;48.770;9.156;2023-06-19T06:47:38;24.50;99.90
1626;DHT22;806;48.770;9.156;2023-06-19T06:50:07;24.60;99.90
1626;DHT22;806;48.770;9.156;2023-06-19T06:52:35;24.60;99.90
1626;DHT22;806;48.770;9.156;2023-06-19T06:55:02;24.60;99.90
1626;DHT22;806;48.770;9.156;2023-06-19T06:57:29;24.70;99.90
1626;DHT22;806;48.770;9.156;2023-06-19T06:59:56;24.60;99.90
1626;DHT22;806;48.770;9.156;2023-06-19T07:02:23;24.60;99.90
1626;DHT22;806;48.770;9.156;2023-06-19T07:04:52;24.80;99.90
1626;DHT22;806;48.770;9.156;2023-06-19T07:07:19;24.80;99.90
1626;DHT22;806;48.770;9.156;2023-06-19T07:09:46;24.70;99.90
1626;DHT22;806;48.770;9.156;2023-06-19T07:12:13;24.80;99.90
1626;DHT22;806;48.770;9.156;2023-06-19T07:14:40;24.90;87.30
1626;DHT22;806;48.770;9.156;2023-06-19T07:17:07;24.90;94.70
1626;DHT22;806;48.770;9.156;2023-06-19T07:19:34;24.90;59.30
1626;DHT22;806;48.770;9.156;2023-06-19T07:22:03;25.00;55.90
1626;DHT22;806;48.770;9.156;2023-06-19T07:24:30;25.00;17.80
1626;DHT22;806;48.770;9.156;2023-06-19T07:26:57;24.80;23.40
1626;DHT22;806;48.770;9.156;2023-06-19T07:29:24;24.80;22.10
1626;DHT22;806;48.770;9.156;2023-06-19T07:31:52;24.90;9.30
1626;DHT22;806;48.770;9.156;2023-06-19T07:34:22;25.10;1.00
1626;DHT22;806;48.770;9.156;2023-06-19T07:36:49;25.30;1.00
1626;DHT22;806;48.770;9.156;2023-06-19T07:39:17;25.60;1.00
1626;DHT22;806;48.770;9.156;2023-06-19T07:41:44;25.60;1.00
1626;DHT22;806;48.770;9.156;2023-06-19T07:44:12;25.70;1.00
1626;DHT22;806;48.770;9.156;2023-06-19T07:46:39;26.00;1.00
1626;DHT22;806;48.770;9.156;2023-06-19T07:49:06;26.00;1.00
1626;DHT22;806;48.770;9.156;2023-06-19T07:51:33;26.10;1.00
1626;DHT22;806;48.770;9.156;2023-06-19T07:54:00;26.00;1.00
1626;DHT22;806;48.770;9.156;2023-06-19T07:56:28;26.00;1.00
1626;DHT22;806;48.770;9.156;2023-06-19T07:58:55;26.00;1.00
1626;DHT22;806;48.770;9.156;2023-06-19T08:01:22;25.90;1.00
1626;DHT22;806;48.770;9.156;2023-06-19T08:03:49;25.90;1.00
1626;DHT22;806;48.770;9.156;2023-06-19T08:06:16;26.00;1.00
1626;DHT22;806;48.770;9.156;2023-06-19T08:08:43;26.00;1.00
1626;DHT22;806;48.770;9.156;2023-06-19T08:11:10;25.80;1.00
1626;DHT22;806;48.770;9.156;2023-06-19T08:13:38;25.50;1.00
1626;DHT22;806;48.770;9.156;2023-06-19T08:16:06;25.40;1.00
1626;DHT22;806;48.770;9.156;2023-06-19T08:18:33;25.50;1.00
1626;DHT22;806;48.770;9.156;2023-06-19T08:21:00;25.50;1.00
1626;DHT22;806;48.770;9.156;2023-06-19T08:23:27;25.50;1.00
1626;DHT22;806;48.770;9.156;2023-06-19T08:25:54;25.50;1.00
1626;DHT22;806;48.770;9.156;2023-06-19T08:28:21;25.50;1.00
1626;DHT22;806;48.770;9.156;2023-06-19T08:30:50;25.40;1.00
1626;DHT22;806;48.770;9.156;2023-06-19T08:33:17;25.50;1.00
1626;DHT22;806;48.770;9.156;2023-06-19T08:35:44;25.50;1.00
1626;DHT22;806;48.770;9.156;2023-06-19T08:38:12;25.50;1.00
1626;DHT22;806;48.770;9.156;2023-06-19T08:40:39;25.40;1.00
1626;DHT22;806;48.770;9.156;2023-06-19T08:43:06;25.40;1.00
1626;DHT22;806;48.770;9.156;2023-06-19T08:45:33;25.50;1.00
1626;DHT22;806;48.770;9.156;2023-06-19T08:48:02;25.40;1.00
1626;DHT22;806;48.770;9.156;2023-06-19T08:50:29;25.60;1.00
1626;DHT22;806;48.770;9.156;2023-06-19T08:52:56;25.80;1.00
1626;DHT22;806;48.770;9.156;2023-06-19T08:55:23;26.00;1.00
1626;DHT22;806;48.770;9.156;2023-06-19T08:57:51;26.00;1.00
1626;DHT22;806;48.770;9.156;2023-06-19T09:00:23;25.90;1.00
1626;DHT22;806;48.770;9.156;2023-06-19T09:02:51;26.00;1.00
1626;DHT22;806;48.770;9.156;2023-06-19T09:05:20;26.20;1.00
1626;DHT22;806;48.770;9.156;2023-06-19T09:07:55;26.50;1.00
1626;DHT22;806;48.770;9.156;2023-06-19T09:10:22;26.70;1.00
1626;DHT22;806;48.770;9.156;2023-06-19T09:12:57;26.80;1.00
1626;DHT22;806;48.770;9.156;2023-06-19T09:15:27;26.80;1.00
1626;DHT22;806;48.770;9.156;2023-06-19T09:18:05;26.90;1.00
1626;DHT22;806;48.770;9.156;2023-06-19T09:20:36;26.80;1.00
1626;DHT22;806;48.770;9.156;2023-06-19T09:23:05;27.10;1.00
1626;DHT22;806;48.770;9.156;2023-06-19T09:25:32;27.20;1.00
1626;DHT22;806;48.770;9.156;2023-06-19T09:27:59;27.40;1.00
1626;DHT22;806;48.770;9.156;2023-06-19T09:30:26;27.80;1.00
1626;DHT22;806;48.770;9.156;2023-06-19T09:32:53;28.00;1.00
1626;DHT22;806;48.770;9.156;2023-06-19T09:35:20;28.00;1.00
1626;DHT22;806;48.770;9.156;2023-06-19T09:37:49;28.30;1.00
1626;DHT22;806;48.770;9.156;2023-06-19T09:40:18;28.40;1.00
1626;DHT22;806;48.770;9.156;2023-06-19T09:42:46;28.50;1.00
1626;DHT22;806;48.770;9.156;2023-06-19T09:45:14;28.50;1.00
1626;DHT22;806;48.770;9.156;2023-06-19T09:47:46;28.60;1.00
1626;DHT22;806;48.770;9.156;2023-06-19T09:50:14;28.50;1.00
1626;DHT22;806;48.770;9.156;2023-06-19T09:52:43;28.40;1.00
1626;DHT22;806;48.770;9.156;2023-06-19T09:55:13;28.40;1.00
1626;DHT22;806;48.770;9.156;2023-06-19T09:57:41;28.50;1.00
1626;DHT22;806;48.770;9.156;2023-06-19T10:00:11;28.60;1.00
1626;DHT22;806;48.770;9.156;2023-06-19T10:02:42;28.60;1.00
1626;DHT22;806;48.770;9.156;2023-06-19T10:05:09;28.60;1.00
1626;DHT22;806;48.770;9.156;2023-06-19T10:07:40;28.50;1.00
1626;DHT22;806;48.770;9.156;2023-06-19T10:10:10;28.70;1.00
1626;DHT22;806;48.770;9.156;2023-06-19T10:12:40;28.70;1.00
1626;DHT22;806;48.770;9.156;2023-06-19T10:15:13;28.80;1.00
1626;DHT22;806;48.770;9.156;2023-06-19T10:17:47;28.80;1.00
1626;DHT22;806;48.770;9.156;2023-06-19T10:20:26;29.00;1.00
1626;DHT22;806;48.770;9.156;2023-06-19T10:23:03;29.20;1.00
1626;DHT22;806;48.770;9.156;2023-06-19T10:25:31;29.20;1.00
1626;DHT22;806;48.770;9.156;2023-06-19T10:28:00;29.50;1.00
1626;DHT22;806;48.770;9.156;2023-06-19T10:30:28;29.90;1.00
1626;DHT22;806;48.770;9.156;2023-06-19T10:32:55;30.40;1.00
1626;DHT22;806;48.770;9.156;2023-06-19T10:35:23;30.20;1.00
1626;DHT22;806;48.770;9.156;2023-06-19T10:37:51;29.90;1.00
1626;DHT22;806;48.770;9.156;2023-06-19T10:40:18;29.70;1.00
1626;DHT22;806;48.770;9.156;2023-06-19T10:42:45;29.50;1.00
1626;DHT22;806;48.770;9.156;2023-06-19T10:45:14;29.50;1.00
1626;DHT22;806;48.770;9.156;2023-06-19T10:47:45;29.30;1.00
1626;DHT22;806;48.770;9.156;2023-06-19T10:50:13;29.30;1.00
1626;DHT22;806;48.770;9.156;2023-06-19T10:52:42;29.20;1.00
1626;DHT22;806;48.770;9.156;2023-06-19T10:55:11;29.20;1.00
1626;DHT22;806;48.770;9.156;2023-06-19T10:57:39;29.30;1.00
1626;DHT22;806;48.770;9.156;2023-06-19T11:00:08;29.30;1.00
1626;DHT22;806;48.770;9.156;2023-06-19T11:02:40;29.10;1.00
1626;DHT22;806;48.770;9.156;2023-06-19T11:05:09;29.20;1.00
1626;DHT22;806;48.770;9.156;2023-06-19T11:07:37;29.30;1.00
1626;DHT22;806;48.770;9.156;2023-06-19T11:10:05;29.40;1.00
1626;DHT22;806;48.770;9.156;2023-06-19T11:12:32;29.50;1.00
1626;DHT22;806;48.770;9.156;2023-06-19T11:15:03;29.70;1.00
1626;DHT22;806;48.770;9.156;2023-06-19T11:17:32;30.40;1.00
1626;DHT22;806;48.770;9.156;2023-06-19T11:20:00;31.10;1.00
1626;DHT22;806;48.770;9.156;2023-06-19T11:22:37;31.50;1.00
1626;DHT22;806;48.770;9.156;2023-06-19T11:25:07;32.00;1.00
1626;DHT22;806;48.770;9.156;2023-06-19T11:27:37;32.10;1.00
1626;DHT22;806;48.770;9.156;2023-06-19T11:30:06;32.40;1.00
1626;DHT22;806;48.770;9.156;2023-06-19T11:32:35;32.50;1.00
1626;DHT22;806;48.770;9.156;2023-06-19T11:35:09;31.80;1.00
1626;DHT22;806;48.770;9.156;2023-06-19T11:37:39;31.90;1.00
1626;DHT22;806;48.770;9.156;2023-06-19T11:40:07;31.70;1.00
1626;DHT22;806;48.770;9.156;2023-06-19T11:42:48;31.70;1.00
1626;DHT22;806;48.770;9.156;2023-06-19T11:45:15;31.80;1.00
1626;DHT22;806;48.770;9.156;2023-06-19T11:47:44;32.30;1.00
1626;DHT22;806;48.770;9.156;2023-06-19T11:50:13;32.60;1.00
1626;DHT22;806;48.770;9.156;2023-06-19T11:52:42;32.60;1.00
1626;DHT22;806;48.770;9.156;2023-06-19T11:55:09;32.50;1.00
1626;DHT22;806;48.770;9.156;2023-06-19T11:57:36;32.80;1.00
1626;DHT22;806;48.770;9.156;2023-06-19T12:00:04;32.60;1.00
1626;DHT22;806;48.770;9.156;2023-06-19T12:02:34;32.80;1.00
1626;DHT22;806;48.770;9.156;2023-06-19T12:05:01;32.60;1.00
1626;DHT22;806;48.770;9.156;2023-06-19T12:07:29;32.40;1.00
1626;DHT22;806;48.770;9.156;2023-06-19T12:09:56;31.50;1.00
1626;DHT22;806;48.770;9.156;2023-06-19T12:12:23;31.00;1.00
1626;DHT22;806;48.770;9.156;2023-06-19T12:14:51;31.00;1.00
1626;DHT22;806;48.770;9.156;2023-06-19T12:17:18;31.10;1.00
1626;DHT22;806;48.770;9.156;2023-06-19T12:19:45;31.50;1.00
1626;DHT22;806;48.770;9.156;2023-06-19T12:22:14;31.90;1.00
1626;DHT22;806;48.770;9.156;2023-06-19T12:24:42;32.40;1.00
1626;DHT22;806;48.770;9.156;2023-06-19T12:27:09;32.60;1.00
1626;DHT22;806;48.770;9.156;2023-06-19T12:29:36;32.40;1.00
1626;DHT22;806;48.770;9.156;2023-06-19T12:32:03;32.50;1.00
1626;DHT22;806;48.770;9.156;2023-06-19T12:34:31;32.80;1.00
1626;DHT22;806;48.770;9.156;2023-06-19T12:36:58;32.90;1.00
1626;DHT22;806;48.770;9.156;2023-06-19T12:39:25;33.10;1.00
1626;DHT22;806;48.770;9.156;2023-06-19T12:41:54;33.40;1.00
1626;DHT22;806;48.770;9.156;2023-06-19T12:44:22;33.30;1.00
1626;DHT22;806;48.770;9.156;2023-06-19T12:46:50;32.90;1.00
1626;DHT22;806;48.770;9.156;2023-06-19T12:49:18;32.30;1.00
1626;DHT22;806;48.770;9.156;2023-06-19T12:51:45;32.00;1.00
1626;DHT22;806;48.770;9.156;2023-06-19T12:54:14;31.80;1.00
1626;DHT22;806;48.770;9.156;2023-06-19T12:56:41;31.20;1.00
1626;DHT22;806;48.770;9.156;2023-06-19T12:59:10;30.90;1.00
1626;DHT22;806;48.770;9.156;2023-06-19T13:01:37;31.10;1.00
1626;DHT22;806;48.770;9.156;2023-06-19T13:04:04;31.40;1.00
1626;DHT22;806;48.770;9.156;2023-06-19T13:06:31;31.60;1.00
1626;DHT22;806;48.770;9.156;2023-06-19T13:08:58;32.00;1.00
1626;DHT22;806;48.770;9.156;2023-06-19T13:11:25;31.80;1.00
1626;DHT22;806;48.770;9.156;2023-06-19T13:13:51;31.60;1.00
1626;DHT22;806;48.770;9.156;2023-06-19T13:16:20;31.70;1.00
1626;DHT22;806;48.770;9.156;2023-06-19T13:18:47;32.20;1.00
1626;DHT22;806;48.770;9.156;2023-06-19T13:21:14;32.50;1.00
1626;DHT22;806;48.770;9.156;2023-06-19T13:23:41;32.90;1.00
1626;DHT22;806;48.770;9.156;2023-06-19T13:26:08;32.80;1.00
1626;DHT22;806;48.770;9.156;2023-06-19T13:28:36;32.90;1.00
1626;DHT22;806;48.770;9.156;2023-06-19T13:31:03;32.50;1.00
1626;DHT22;806;48.770;9.156;2023-06-19T13:33:31;32.30;1.00
1626;DHT22;806;48.770;9.156;2023-06-19T13:35:58;32.70;1.00
1626;DHT22;806;48.770;9.156;2023-06-19T13:38:25;33.00;1.00
1626;DHT22;806;48.770;9.156;2023-06-19T13:40:52;32.80;1.00
1626;DHT22;806;48.770;9.156;2023-06-19T13:43:19;32.60;1.00
1626;DHT22;806;48.770;9.156;2023-06-19T13:45:48;32.40;1.00
1626;DHT22;806;48.770;9.156;2023-06-19T13:48:15;32.50;1.00
1626;DHT22;806;48.770;9.156;2023-06-19T13:50:44;32.50;1.00
1626;DHT22;806;48.770;9.156;2023-06-19T13:53:11;32.50;1.00
1626;DHT22;806;48.770;9.156;2023-06-19T13:55:37;32.50;1.00
1626;DHT22;806;48.770;9.156;2023-06-19T13:58:04;32.60;1.00
1626;DHT22;806;48.770;9.156;2023-06-19T14:00:32;33.20;1.00
1626;DHT22;806;48.770;9.156;2023-06-19T14:03:00;32.80;1.00
1626;DHT22;806;48.770;9.156;2023-06-19T14:05:29;32.40;1.00
1626;DHT22;806;48.770;9.156;2023-06-19T14:07:59;32.00;1.00
1626;DHT22;806;48.770;9.156;2023-06-19T14:10:26;31.80;1.00
1626;DHT22;806;48.770;9.156;2023-06-19T14:12:53;31.80;1.00
1626;DHT22;806;48.770;9.156;2023-06-19T14:15:20;31.50;1.00
1626;DHT22;806;48.770;9.156;2023-06-19T14:17:47;31.70;1.00
1626;DHT22;806;48.770;9.156;2023-06-19T14:20:14;31.60;1.00
1626;DHT22;806;48.770;9.156;2023-06-19T14:22:41;31.80;1.00
1626;DHT22;806;48.770;9.156;2023-06-19T14:25:10;32.20;1.00
1626;DHT22;806;48.770;9.156;2023-06-19T14:27:38;32.50;1.00
1626;DHT22;806;48.770;9.156;2023-06-19T14:30:06;32.70;1.00
1626;DHT22;806;48.770;9.156;2023-06-19T14:32:34;33.00;1.00
1626;DHT22;806;48.770;9.156;2023-06-19T14:35:01;33.00;1.00
1626;DHT22;806;48.770;9.156;2023-06-19T14:37:28;32.50;1.00
1626;DHT22;806;48.770;9.156;2023-06-19T14:39:55;32.20;1.00
1626;DHT22;806;48.770;9.156;2023-06-19T14:42:24;32.20;1.00
1626;DHT22;806;48.770;9.156;2023-06-19T14:44:51;31.50;1.00
1626;DHT22;806;48.770;9.156;2023-06-19T14:47:18;31.40;1.00
1626;DHT22;806;48.770;9.156;2023-06-19T14:49:45;31.50;1.00
1626;DHT22;806;48.770;9.156;2023-06-19T14:52:12;31.50;1.00
1626;DHT22;806;48.770;9.156;2023-06-19T14:54:38;31.50;1.00
1626;DHT22;806;48.770;9.156;2023-06-19T14:57:06;31.50;1.00
1626;DHT22;806;48.770;9.156;2023-06-19T14:59:34;31.40;1.00
1626;DHT22;806;48.770;9.156;2023-06-19T15:02:01;31.60;1.00
1626;DHT22;806;48.770;9.156;2023-06-19T15:04:29;31.60;1.00
1626;DHT22;806;48.770;9.156;2023-06-19T15:06:56;31.60;1.00
1626;DHT22;806;48.770;9.156;2023-06-19T15:09:23;31.60;1.00
1626;DHT22;806;48.770;9.156;2023-06-19T15:11:51;31.50;1.00
1626;DHT22;806;48.770;9.156;2023-06-19T15:14:18;31.70;1.00
1626;DHT22;806;48.770;9.156;2023-06-19T15:16:47;31.90;1.00
1626;DHT22;806;48.770;9.156;2023-06-19T15:19:14;32.10;1.00
1626;DHT22;806;48.770;9.156;2023-06-19T15:21:41;32.40;1.00
1626;DHT22;806;48.770;9.156;2023-06-19T15:24:08;32.10;1.00
1626;DHT22;806;48.770;9.156;2023-06-19T15:26:35;32.10;1.00
1626;DHT22;806;48.770;9.156;2023-06-19T15:29:02;32.00;1.00
1626;DHT22;806;48.770;9.156;2023-06-19T15:31:29;31.90;1.00
1626;DHT22;806;48.770;9.156;2023-06-19T15:33:57;31.70;1.00
1626;DHT22;806;48.770;9.156;2023-06-19T15:36:24;31.60;1.00
1626;DHT22;806;48.770;9.156;2023-06-19T15:38:51;31.60;1.00
1626;DHT22;806;48.770;9.156;2023-06-19T15:41:18;31.30;1.00
1626;DHT22;806;48.770;9.156;2023-06-19T15:43:45;31.30;1.00
1626;DHT22;806;48.770;9.156;2023-06-19T15:46:14;31.20;1.00
1626;DHT22;806;48.770;9.156;2023-06-19T15:48:41;31.00;1.00
1626;DHT22;806;48.770;9.156;2023-06-19T15:51:10;30.90;1.00
1626;DHT22;806;48.770;9.156;2023-06-19T15:53:38;30.80;1.00
1626;DHT22;806;48.770;9.156;2023-06-19T15:56:05;31.00;1.00
1626;DHT22;806;48.770;9.156;2023-06-19T15:58:32;31.00;1.00
1626;DHT22;806;48.770;9.156;2023-06-19T16:00:59;31.00;1.00
1626;DHT22;806;48.770;9.156;2023-06-19T16:03:26;30.80;1.00
1626;DHT22;806;48.770;9.156;2023-06-19T16:05:55;30.80;1.00
1626;DHT22;806;48.770;9.156;2023-06-19T16:08:24;30.70;1.00
1626;DHT22;806;48.770;9.156;2023-06-19T16:10:51;30.70;1.00
1626;DHT22;806;48.770;9.156;2023-06-19T16:13:18;30.60;1.00
1626;DHT22;806;48.770;9.156;2023-06-19T16:15:45;30.60;1.00
1626;DHT22;806;48.770;9.156;2023-06-19T16:18:12;30.70;1.00
1626;DHT22;806;48.770;9.156;2023-06-19T16:20:39;30.80;1.00
1626;DHT22;806;48.770;9.156;2023-06-19T16:23:06;30.80;1.00
1626;DHT22;806;48.770;9.156;2023-06-19T16:25:34;30.60;1.00
1626;DHT22;806;48.770;9.156;2023-06-19T16:28:01;30.60;1.00
1626;DHT22;806;48.770;9.156;2023-06-19T16:30:28;30.40;1.00
1626;DHT22;806;48.770;9.156;2023-06-19T16:32:55;30.30;1.00
1626;DHT22;806;48.770;9.156;2023-06-19T16:35:22;30.20;1.00